Euskara    
Meteorología y climatología de Navarra
Datos de la estación - Meteo Navarra

Estación de Tudela (Montes del Cierzo) GN

Altitud 314 m.


Datos desde el 22/11/2020 hasta el 23/11/2020 en horario solar
Los datos son PROVISIONALES

Anterior Página 1 de 1 Siguiente Descargar: Formato para Excel 2000 o superior   Formato csv   Formato para OpenOffice Calc
Fecha Temperatura Humedad relativa Radiación global Insolación Precipitación Vel. viento 10 m Vel. viento 10 m Dir. viento 10 m
°C % W/m² s l/m² m/s km/h °
22/11/2020 0:00 -0.2 86 0.0 0 0.0 0.9 3.2 225
22/11/2020 0:10 -0.2 87 0.0 0 0.0 0.8 3.0 175
22/11/2020 0:20 -0.2 87 0.0 0 0.0 1.6 5.7 122
22/11/2020 0:30 0.3 88 0.0 0 0.0 1.9 6.7 124
22/11/2020 0:40 0.7 88 0.0 0 0.0 0.9 3.3 120
22/11/2020 0:50 0.6 87 0.0 0 0.0 0.7 2.5 114
22/11/2020 1:00 0.3 87 0.0 0 0.0 0.0 0.1 150
22/11/2020 1:10 -0.5 87 0.0 0 0.0 0.8 2.9 216
22/11/2020 1:20 -0.8 88 0.0 0 0.0 1.2 4.3 236
22/11/2020 1:30 -1.0 89 0.0 0 0.0 0.9 3.3 223
22/11/2020 1:40 -1.5 89 0.0 0 0.0 1.1 4.0 207
22/11/2020 1:50 -1.6 90 0.0 0 0.0 2.0 7.1 213
22/11/2020 2:00 -1.7 90 0.0 0 0.0 2.1 7.4 235
22/11/2020 2:10 -1.5 91 0.0 0 0.0 1.4 5.1 263
22/11/2020 2:20 -1.7 90 0.0 0 0.0 1.4 5.0 275
22/11/2020 2:30 -1.7 91 0.0 0 0.0 1.6 5.8 262
22/11/2020 2:40 -1.9 91 0.0 0 0.0 1.5 5.4 251
22/11/2020 2:50 -1.8 91 0.0 0 0.0 1.8 6.3 234
22/11/2020 3:00 -1.8 91 0.0 0 0.0 1.9 6.7 219
22/11/2020 3:10 -1.7 91 0.0 0 0.0 2.3 8.2 223
22/11/2020 3:20 -2.1 91 0.0 0 0.0 2.5 9.0 222
22/11/2020 3:30 -1.9 91 0.0 0 0.0 2.7 9.8 221
22/11/2020 3:40 -1.9 91 0.0 0 0.0 2.6 9.2 232
22/11/2020 3:50 -2.1 91 0.0 0 0.0 2.2 7.8 237
22/11/2020 4:00 -2.1 91 0.0 0 0.0 2.6 9.3 231
22/11/2020 4:10 -2.0 92 0.0 0 0.0 2.8 9.9 228
22/11/2020 4:20 -2.0 92 0.0 0 0.0 2.9 10.5 223
22/11/2020 4:30 -2.0 92 0.0 0 0.0 3.0 10.9 225
22/11/2020 4:40 -2.0 92 0.0 0 0.0 2.7 9.6 227
22/11/2020 4:50 -2.1 92 0.0 0 0.0 3.2 11.3 220
22/11/2020 5:00 -2.0 92 0.0 0 0.0 3.1 11.1 224
22/11/2020 5:10 -1.9 92 0.0 0 0.0 2.7 9.9 229
22/11/2020 5:20 -2.1 92 0.0 0 0.0 2.5 8.8 228
22/11/2020 5:30 -2.1 92 0.0 0 0.0 1.9 6.9 229
22/11/2020 5:40 -2.2 93 0.0 0 0.0 1.8 6.3 230
22/11/2020 5:50 -2.2 93 0.0 0 0.0 0.9 3.4 244
22/11/2020 6:00 -2.1 93 0.0 0 0.0 0.8 2.7 245
22/11/2020 6:10 -2.1 93 0.0 0 0.0 1.0 3.7 249
22/11/2020 6:20 -2.3 93 0.0 0 0.0 1.2 4.3 241
22/11/2020 6:30 -2.5 93 0.0 0 0.0 1.4 4.9 239
22/11/2020 6:40 -2.7 93 0.0 0 0.0 1.3 4.7 247
22/11/2020 6:50 -2.7 94 0.0 0 0.0 1.6 5.7 240
22/11/2020 7:00 -3.0 94 0.0 0 0.0 1.3 4.7 241
22/11/2020 7:10 -3.1 94 0.0 0 0.0 1.4 4.9 259
22/11/2020 7:20 -3.0 94 8.3 0 0.0 1.3 4.8 254
22/11/2020 7:30 -2.8 94 35.0 410 0.0 1.1 3.8 269
22/11/2020 7:40 -2.5 94 62.8 600 0.0 0.1 0.5 284
22/11/2020 7:50 -2.0 94 94.3 600 0.0 1.5 5.4 265
22/11/2020 8:00 -1.2 93 132.9 600 0.0 1.4 5.2 245
22/11/2020 8:10 -0.7 92 162.6 600 0.0 1.8 6.6 231
22/11/2020 8:20 -0.1 92 190.2 600 0.0 2.3 8.3 235
22/11/2020 8:30 0.6 91 211.3 600 0.0 2.5 9.1 266
22/11/2020 8:40 1.2 89 216.5 600 0.0 2.5 8.8 266
22/11/2020 8:50 1.8 88 213.1 600 0.0 1.7 6.3 254
22/11/2020 9:00 2.4 87 234.2 600 0.0 1.6 5.7 248
22/11/2020 9:10 3.1 85 274.0 600 0.0 1.3 4.5 262
22/11/2020 9:20 3.8 82 314.7 600 0.0 1.0 3.7 282
22/11/2020 9:30 4.1 79 344.5 600 0.0 0.7 2.4 293
22/11/2020 9:40 4.8 76 359.3 600 0.0 0.7 2.5 292
22/11/2020 9:50 5.0 72 365.9 600 0.0 1.0 3.7 289
22/11/2020 10:00 5.5 72 380.5 600 0.0 0.8 2.8 294
22/11/2020 10:10 6.1 69 398.1 600 0.0 0.7 2.6 312
22/11/2020 10:20 6.3 68 412.2 600 0.0 1.0 3.5 323
22/11/2020 10:30 6.6 67 424.6 600 0.0 1.2 4.2 351
22/11/2020 10:40 7.0 65 437.0 600 0.0 1.0 3.7 344
22/11/2020 10:50 7.1 64 447.0 600 0.0 1.5 5.4 351
22/11/2020 11:00 7.4 63 457.4 600 0.0 1.5 5.3 358
22/11/2020 11:10 7.9 61 465.4 600 0.0 0.9 3.1 344
22/11/2020 11:20 8.2 60 470.8 600 0.0 0.9 3.2 354
22/11/2020 11:30 8.5 58 476.9 600 0.0 0.8 3.0 14
22/11/2020 11:40 8.7 57 484.0 600 0.0 1.0 3.5 22
22/11/2020 11:50 8.9 57 488.7 600 0.0 0.8 2.8 34
22/11/2020 12:00 9.1 56 492.0 600 0.0 1.3 4.7 43
22/11/2020 12:10 9.4 54 492.8 600 0.0 0.8 2.8 13
22/11/2020 12:20 9.9 52 489.3 600 0.0 0.7 2.6 19
22/11/2020 12:30 9.8 51 483.8 600 0.0 0.6 2.1 13
22/11/2020 12:40 10.3 49 476.6 600 0.0 0.4 1.4 174
22/11/2020 12:50 11.0 48 469.2 600 0.0 0.7 2.5 310
22/11/2020 13:00 11.8 47 459.6 600 0.0 0.6 2.3 285
22/11/2020 13:10 12.1 45 447.9 600 0.0 0.6 2.1 282
22/11/2020 13:20 11.8 45 433.8 600 0.0 0.6 2.1 2
22/11/2020 13:30 12.0 46 419.5 600 0.0 0.7 2.5 217
22/11/2020 13:40 11.7 47 403.1 600 0.0 1.1 3.9 152
22/11/2020 13:50 11.8 46 382.6 600 0.0 0.8 2.7 207
22/11/2020 14:00 12.4 45 362.7 600 0.0 0.8 2.7 217
22/11/2020 14:10 12.4 45 340.3 600 0.0 0.5 1.6 108
22/11/2020 14:20 12.2 45 316.1 600 0.0 0.6 2.2 141
22/11/2020 14:30 12.1 44 291.0 600 0.0 0.7 2.4 112
22/11/2020 14:40 12.2 42 268.4 600 0.0 0.9 3.3 23
22/11/2020 14:50 12.4 43 245.9 600 0.0 0.4 1.4 106
22/11/2020 15:00 12.5 44 223.9 600 0.0 0.4 1.5 102
22/11/2020 15:10 12.5 44 197.5 600 0.0 0.3 1.1 97
22/11/2020 15:20 12.6 46 148.6 582 0.0 0.2 0.8 132
22/11/2020 15:30 12.2 46 120.3 560 0.0 0.2 0.6 202
22/11/2020 15:40 11.7 45 102.0 600 0.0 0.5 1.9 24
22/11/2020 15:50 11.3 48 78.2 394 0.0 0.6 2.3 21
22/11/2020 16:00 10.5 50 51.6 172 0.0 0.8 2.8 29
22/11/2020 16:10 9.9 51 26.4 0 0.0 0.6 2.3 41
22/11/2020 16:20 9.6 53 14.9 0 0.0 0.6 2.1 44
22/11/2020 16:30 8.9 58 0.0 0 0.0 0.8 2.8 106
22/11/2020 16:40 8.1 60 0.0 0 0.0 1.0 3.7 134
22/11/2020 16:50 7.5 62 0.0 0 0.0 0.8 3.0 135
22/11/2020 17:00 6.7 64 0.0 0 0.0 1.0 3.7 155
22/11/2020 17:10 5.6 67 0.0 0 0.0 1.4 4.9 170
22/11/2020 17:20 4.8 71 0.0 0 0.0 1.0 3.5 173
22/11/2020 17:30 4.4 73 0.0 0 0.0 1.4 5.2 183
22/11/2020 17:40 4.2 74 0.0 0 0.0 1.2 4.2 191
22/11/2020 17:50 4.1 75 0.0 0 0.0 1.4 5.0 195
22/11/2020 18:00 4.0 76 0.0 0 0.0 1.8 6.3 188
22/11/2020 18:10 3.6 77 0.0 0 0.0 1.7 6.2 181
22/11/2020 18:20 3.7 78 0.0 0 0.0 1.6 5.7 185
22/11/2020 18:30 3.5 78 0.0 0 0.0 1.9 6.7 185
22/11/2020 18:40 3.7 78 0.0 0 0.0 1.8 6.6 185
22/11/2020 18:50 3.5 79 0.0 0 0.0 2.1 7.7 225
22/11/2020 19:00 3.9 79 0.0 0 0.0 2.5 9.1 239
22/11/2020 19:10 3.9 77 0.0 0 0.0 2.6 9.5 245
22/11/2020 19:20 3.2 79 0.0 0 0.0 2.7 9.6 234
22/11/2020 19:30 2.8 81 0.0 0 0.0 3.1 11.2 228
22/11/2020 19:40 2.6 83 0.0 0 0.0 3.3 11.8 231
22/11/2020 19:50 2.5 84 0.0 0 0.0 3.1 11.3 231
22/11/2020 20:00 2.3 84 0.0 0 0.0 2.6 9.2 214
22/11/2020 20:10 2.7 85 0.0 0 0.0 1.8 6.5 185
22/11/2020 20:20 3.2 83 0.0 0 0.0 0.9 3.1 163
22/11/2020 20:30 3.1 82 0.0 0 0.0 0.3 1.2 178
22/11/2020 20:40 2.8 82 0.0 0 0.0 0.8 2.9 223
22/11/2020 20:50 2.1 81 0.0 0 0.0 1.7 6.2 204
22/11/2020 21:00 2.2 82 0.0 0 0.0 1.0 3.5 232
22/11/2020 21:10 1.9 83 0.0 0 0.0 1.0 3.5 71
22/11/2020 21:20 1.4 83 0.0 0 0.0 1.3 4.6 52
22/11/2020 21:30 1.3 84 0.0 0 0.0 0.6 2.2 54
22/11/2020 21:40 1.3 85 0.0 0 0.0 0.0 0.0 0
22/11/2020 21:50 1.3 86 0.0 0 0.0 0.2 0.7 278
22/11/2020 22:00 1.3 86 0.0 0 0.0 1.1 4.1 234
22/11/2020 22:10 1.3 86 0.0 0 0.0 0.8 2.9 242
22/11/2020 22:20 1.3 87 0.0 0 0.0 1.3 4.6 264
22/11/2020 22:30 1.5 87 0.0 0 0.0 1.3 4.6 254
22/11/2020 22:40 1.4 87 0.0 0 0.0 2.0 7.2 266
22/11/2020 22:50 0.9 86 0.0 0 0.0 2.8 10.2 269
22/11/2020 23:00 0.4 87 0.0 0 0.0 2.2 8.0 248
22/11/2020 23:10 0.5 88 0.0 0 0.0 2.1 7.4 251
22/11/2020 23:20 0.3 88 0.0 0 0.0 2.0 7.2 239
22/11/2020 23:30 0.1 89 0.0 0 0.0 2.2 8.1 263
22/11/2020 23:40 0.1 89 0.0 0 0.0 2.6 9.3 265
22/11/2020 23:50 0.2 90 0.0 0 0.0 2.1 7.5 266
Anterior Página 1 de 1 Siguiente

NOTA: Tipo de datos según el color:
   - Valores diarios o 10 minutos correctos
   - Valores diarios calculados a partir de un número de datos 10 minutos menor que 144 y mayor que 120, o de un número de datos semihorarios menor que 48 y mayor que 40 (caso de las estaciones de INTIA Y Ministerio)
   - Valores diez minutos estimados


Contacto        Enlaces        Aviso legal